Strathroy, Canada
Current Conditions -  °F | °C
As of 9:00 PM on Monday 24 Nov 2014 (Local Time) from CYXU Reporting Station
Broken Clouds Broken Clouds  
Wind Chill: 25°   Ceiling: 2400
Heat Index: 37°   Visibility: 15mi
Dew Point: 28°   Wind: 32mph
Humidity: 70%   Direction: 240°WSW
Pressure: 29.58"   Gusts: 51mph
Location:  42.96°N, 81.62°W
Report Text: CYXU 250200Z 24028G44KT 15SM BKN024 03/M02 A2958 RMK SC7 SLP021
Loading
Personal Weather Stations






























Interactive Weather Map New forecast layout! Learn more

10-Day Weather Forecast

Advertisements
Track Severe Weather on mobile